Hovedside
METAR-TAF:

METAR-TAF

Lufthavner :

Bardufoss lufthavn

Bardufoss, Norge

breddegrad: 69-04N, lengdegrad: 018-32E, høyde over havet: 7 m

Gjeldene værobservasjon

Denne rapporten ble laget for 20 minutter siden, klokken 06:50 UTC
Vind 1 kt fra skiftende retning
Temperatur 6°C
Luftfuktighet 87%
Trykk 1012 hPa
Sikt 10 km eller mer
Få skyer i en høyde av 2000 ft
Spredte skyer i en høyde av 3000 ft
Brutte skyer i en høyde av 4500 ft
lette regnbyger

METAR: ENDU 230650Z VRB01KT 9999 -SHRA FEW020 SCT030 BKN045 06/04 Q1012 TEMPO 23010KT RMK WIND 1100FT 21016KT WIND 2200FT 24018KT

Tid: 09:10 (07:10 UTC)

Varsel

Varsel gyldig fra 23. klokken 06 UTC til 24. klokken 06 UTC
Vind 8 kt fra Vest-sørvest
Sikt 10 km eller mer
Få skyer i en høyde av 1500 ft
Brutte skyer i en høyde av 3000 ft
Midlertidig
fra 23. klokken 06 UTC til 23. klokken 15 UTC
Vind 20 kt fra Sørvest med vindkast opp mot 30 kt
lette regnbyger

TAF: ENDU 2306/2406 24008KT 9999 FEW015 BKN030 TEMPO 2306/2315 23020G30KT -SHRA

Værobservasjoner og værvarsel for over 4000 flyplasser (METAR- og TAF-rapporter).

Tilgjengelige stasjoner er representert av de røde og gule prikkene på kartet.

Hold musepekeren over prikken for å se navnet på stasjonen.

Klikk så for å se værobservasjoner og -varsler.

For å forandre kartet kan du klikke på den grønne knappen med svart kryss for å zoome inn, på den grønne knappen med strek for å zoome ut, eller på de grønne pilene for å se tilstøtende kart.


METAR-TAF: